createdAt,value
2023-03-05T00:01:40.070Z,6.30
2023-03-05T00:04:16.281Z,6.50
2023-03-05T00:06:49.728Z,6.40
2023-03-05T00:09:23.692Z,6.60
2023-03-05T00:11:57.325Z,6.50
2023-03-05T00:14:31.245Z,6.80
2023-03-05T00:17:04.772Z,7.20
2023-03-05T00:19:38.421Z,7.80
2023-03-05T00:22:11.865Z,6.90
2023-03-05T00:24:45.760Z,6.60
2023-03-05T00:27:23.076Z,7.10
2023-03-05T00:29:56.540Z,6.10
2023-03-05T00:32:30.814Z,6.90
2023-03-05T00:35:04.518Z,5.60
2023-03-05T00:37:38.430Z,6.00
2023-03-05T00:40:14.529Z,5.80
2023-03-05T00:42:48.695Z,6.70
2023-03-05T00:45:22.475Z,4.30
2023-03-05T00:47:56.137Z,5.60
2023-03-05T00:50:30.738Z,5.90
2023-03-05T00:53:04.658Z,5.50
2023-03-05T00:55:38.245Z,5.60
2023-03-05T00:58:12.259Z,6.00
2023-03-05T01:00:45.683Z,5.50
2023-03-05T01:03:19.524Z,5.70
2023-03-05T01:05:53.337Z,5.50
2023-03-05T01:08:27.816Z,5.20
2023-03-05T01:11:01.405Z,5.40
2023-03-05T01:13:35.192Z,6.20
2023-03-05T01:16:09.550Z,6.40
2023-03-05T01:18:43.556Z,6.80
2023-03-05T01:21:17.048Z,7.10
2023-03-05T01:23:51.011Z,6.40
2023-03-05T01:26:24.853Z,6.00
2023-03-05T01:28:58.934Z,7.70
2023-03-05T01:31:32.603Z,6.70
2023-03-05T01:34:06.893Z,6.80
2023-03-05T01:36:42.330Z,6.90
2023-03-05T01:39:17.468Z,6.20
2023-03-05T01:41:51.156Z,5.80
2023-03-05T01:44:33.888Z,6.30
2023-03-05T01:47:08.752Z,5.50
2023-03-05T01:49:43.992Z,5.80
2023-03-05T01:52:21.375Z,5.40
2023-03-05T01:54:58.749Z,6.40
2023-03-05T01:57:36.866Z,6.50
2023-03-05T02:00:19.636Z,6.60
2023-03-05T02:02:54.557Z,6.90
2023-03-05T02:05:31.503Z,5.70
2023-03-05T02:08:08.044Z,6.40
2023-03-05T02:10:43.844Z,5.60
2023-03-05T02:13:20.096Z,7.40
2023-03-05T02:15:55.416Z,6.10
2023-03-05T02:18:29.528Z,6.40
2023-03-05T02:21:07.437Z,7.60
2023-03-05T02:23:41.844Z,5.70
2023-03-05T02:26:15.975Z,6.20
2023-03-05T02:28:54.449Z,5.50
2023-03-05T02:31:29.904Z,6.90
2023-03-05T02:34:03.482Z,6.10
2023-03-05T02:36:37.478Z,5.60
2023-03-05T02:39:11.760Z,6.00
2023-03-05T02:41:51.741Z,6.50
2023-03-05T02:44:25.691Z,6.50
2023-03-05T02:47:00.109Z,5.90
2023-03-05T02:49:34.490Z,6.60
2023-03-05T02:52:09.091Z,6.20
2023-03-05T02:54:43.146Z,6.50
2023-03-05T02:57:17.488Z,5.70
2023-03-05T02:59:51.850Z,6.30
2023-03-05T03:02:26.105Z,5.60
2023-03-05T03:05:00.607Z,6.00
2023-03-05T03:07:34.826Z,6.20
2023-03-05T03:10:10.497Z,5.00
2023-03-05T03:12:46.089Z,6.90
2023-03-05T03:15:20.315Z,8.40
2023-03-05T03:17:54.355Z,5.80
2023-03-05T03:20:28.121Z,6.40
2023-03-05T03:23:04.606Z,6.00
2023-03-05T03:25:38.986Z,6.10
2023-03-05T03:28:12.871Z,5.80
2023-03-05T03:30:46.423Z,5.60
2023-03-05T03:33:23.423Z,6.80
2023-03-05T03:35:56.615Z,5.90
2023-03-05T03:38:30.665Z,5.60
2023-03-05T03:41:06.986Z,6.80
2023-03-05T03:43:40.716Z,5.40
2023-03-05T03:46:14.338Z,6.00
2023-03-05T03:48:51.385Z,6.20
2023-03-05T03:51:25.092Z,6.40
2023-03-05T03:53:59.225Z,6.50
2023-03-05T03:56:33.386Z,5.70
2023-03-05T03:59:07.551Z,5.80
2023-03-05T04:01:41.568Z,5.90
2023-03-05T04:04:16.043Z,5.30
2023-03-05T04:06:49.610Z,5.30
2023-03-05T04:09:23.379Z,5.50
2023-03-05T04:11:57.476Z,5.40
2023-03-05T04:14:31.057Z,5.60
2023-03-05T04:17:04.713Z,5.30
2023-03-05T04:19:38.121Z,5.10
2023-03-05T04:22:14.248Z,4.80
2023-03-05T04:24:48.225Z,4.90
2023-03-05T04:27:22.080Z,4.90
2023-03-05T04:29:55.725Z,5.30
2023-03-05T04:32:30.247Z,5.60
2023-03-05T04:35:03.982Z,6.30
2023-03-05T04:37:37.540Z,5.70
2023-03-05T04:40:13.545Z,4.80
2023-03-05T04:42:48.181Z,5.00
2023-03-05T04:45:22.061Z,5.10
2023-03-05T04:47:55.652Z,4.90
2023-03-05T04:50:29.347Z,5.60
2023-03-05T04:53:04.265Z,5.10
2023-03-05T04:55:37.959Z,4.90
2023-03-05T04:58:12.007Z,4.80
2023-03-05T05:00:45.979Z,5.00
2023-03-05T05:03:19.819Z,5.00
2023-03-05T05:06:00.135Z,5.20
2023-03-05T05:08:33.674Z,5.30
2023-03-05T05:11:15.417Z,5.40
2023-03-05T05:13:49.221Z,8.40
2023-03-05T05:16:22.931Z,8.50
2023-03-05T05:18:56.604Z,5.40
2023-03-05T05:21:30.240Z,5.20
2023-03-05T05:24:03.740Z,4.50
2023-03-05T05:26:37.510Z,7.10
2023-03-05T05:29:11.300Z,4.80
2023-03-05T05:31:45.322Z,6.10
2023-03-05T05:34:19.530Z,6.00
2023-03-05T05:36:54.025Z,4.70
2023-03-05T05:39:27.928Z,7.00
2023-03-05T05:42:01.904Z,5.40
2023-03-05T05:44:35.815Z,5.00
2023-03-05T05:47:10.077Z,4.50
2023-03-05T05:49:44.329Z,5.10
2023-03-05T05:52:18.276Z,5.10
2023-03-05T05:54:51.851Z,4.80
2023-03-05T05:57:33.433Z,5.30
2023-03-05T06:00:10.887Z,5.80
2023-03-05T06:02:47.871Z,4.80
2023-03-05T06:05:21.953Z,6.00
2023-03-05T06:07:56.221Z,4.90
2023-03-05T06:10:30.151Z,4.60
2023-03-05T06:13:11.780Z,5.30
2023-03-05T06:15:45.762Z,5.20
2023-03-05T06:18:19.838Z,4.90
2023-03-05T06:21:15.800Z,6.80
2023-03-05T06:23:50.457Z,5.40
2023-03-05T06:26:25.332Z,5.60
2023-03-05T06:28:59.418Z,5.30
2023-03-05T06:31:35.052Z,5.00
2023-03-05T06:34:10.252Z,6.40
2023-03-05T06:36:54.579Z,8.90
2023-03-05T06:39:28.415Z,8.40
2023-03-05T06:42:04.709Z,6.40
2023-03-05T06:44:48.364Z,5.60
2023-03-05T06:47:22.414Z,6.30
2023-03-05T06:49:56.288Z,7.20
2023-03-05T06:52:30.068Z,5.60
2023-03-05T06:55:07.872Z,6.80
2023-03-05T06:57:41.536Z,8.50
2023-03-05T07:00:17.349Z,5.60
2023-03-05T07:02:51.664Z,5.90
2023-03-05T07:05:25.356Z,5.60
2023-03-05T07:07:59.160Z,5.50
2023-03-05T07:10:32.480Z,6.00
2023-03-05T07:13:06.305Z,6.00
2023-03-05T07:15:42.441Z,6.30
2023-03-05T07:18:16.230Z,6.20
2023-03-05T07:20:49.865Z,5.70
2023-03-05T07:23:23.848Z,5.20
2023-03-05T07:25:57.534Z,6.40
2023-03-05T07:28:31.232Z,5.80
2023-03-05T07:31:07.317Z,6.00
2023-03-05T07:33:41.303Z,6.50
2023-03-05T07:36:15.820Z,5.60
2023-03-05T07:38:49.542Z,5.10
2023-03-05T07:41:24.019Z,5.50
2023-03-05T07:43:58.211Z,5.30
2023-03-05T07:46:33.580Z,4.60
2023-03-05T07:49:07.271Z,5.30
2023-03-05T07:51:41.848Z,5.10
2023-03-05T07:54:15.472Z,6.30
2023-03-05T07:56:49.272Z,6.10
2023-03-05T07:59:22.649Z,5.60
2023-03-05T08:01:56.529Z,5.50
2023-03-05T08:04:32.220Z,5.30
2023-03-05T08:07:06.741Z,5.30
2023-03-05T08:09:40.448Z,5.90
2023-03-05T08:12:14.342Z,5.30
2023-03-05T08:14:48.544Z,5.20
2023-03-05T08:17:22.505Z,7.20
2023-03-05T08:20:00.230Z,6.10
2023-03-05T08:22:36.301Z,5.70
2023-03-05T08:25:11.389Z,5.20
2023-03-05T08:27:47.412Z,6.30
2023-03-05T08:30:27.859Z,5.60
2023-03-05T08:33:01.737Z,6.30
2023-03-05T08:35:35.745Z,5.80
2023-03-05T08:38:09.524Z,6.20
2023-03-05T08:40:47.001Z,5.70
2023-03-05T08:43:20.730Z,6.40
2023-03-05T08:45:55.121Z,6.60
2023-03-05T08:48:29.348Z,7.20
2023-03-05T08:51:08.745Z,5.70
2023-03-05T08:53:43.085Z,6.40
2023-03-05T08:56:17.182Z,6.40
2023-03-05T08:58:52.835Z,6.50
2023-03-05T09:01:28.153Z,7.70
2023-03-05T09:04:02.725Z,6.90
2023-03-05T09:06:39.729Z,7.40
2023-03-05T09:09:14.628Z,6.70
2023-03-05T09:11:48.422Z,6.90
2023-03-05T09:14:22.575Z,7.10
2023-03-05T09:16:56.498Z,7.40
2023-03-05T09:19:30.660Z,7.10
2023-03-05T09:22:04.570Z,6.80
2023-03-05T09:24:38.547Z,6.80
2023-03-05T09:27:12.819Z,6.60
2023-03-05T09:29:46.307Z,7.50
2023-03-05T09:32:20.349Z,7.90
2023-03-05T09:34:53.924Z,7.20
2023-03-05T09:37:28.291Z,7.70
2023-03-05T09:40:02.111Z,7.50
2023-03-05T09:42:55.540Z,7.80
2023-03-05T09:45:32.230Z,8.20
2023-03-05T09:48:15.577Z,8.50
2023-03-05T09:50:54.990Z,7.80
2023-03-05T09:53:39.113Z,8.90
2023-03-05T09:56:17.276Z,8.30
2023-03-05T09:58:56.163Z,7.70
2023-03-05T10:01:35.081Z,7.90
2023-03-05T10:04:16.513Z,8.80
2023-03-05T10:06:55.078Z,8.30
2023-03-05T10:12:23.689Z,8.20
2023-03-05T10:14:58.324Z,8.60
2023-03-05T10:17:57.376Z,9.60
2023-03-05T10:20:50.476Z,8.40
2023-03-05T10:23:35.715Z,9.10
2023-03-05T10:26:29.098Z,9.30
2023-03-05T10:29:15.174Z,9.00
2023-03-05T10:31:58.142Z,9.50
2023-03-05T10:35:05.292Z,9.60
2023-03-05T10:38:12.109Z,9.10
2023-03-05T10:40:56.252Z,9.20
2023-03-05T10:43:38.490Z,8.30
2023-03-05T10:46:18.998Z,9.70
2023-03-05T10:48:59.026Z,9.30
2023-03-05T10:51:41.370Z,7.70
2023-03-05T10:54:21.232Z,7.00
2023-03-05T10:57:07.058Z,6.40
2023-03-05T10:59:41.108Z,7.00
2023-03-05T11:02:17.074Z,5.90
2023-03-05T11:04:52.137Z,5.10
2023-03-05T11:07:43.011Z,4.30
2023-03-05T11:10:22.960Z,4.30
2023-03-05T11:12:58.352Z,4.10
2023-03-05T11:15:35.241Z,2.70
2023-03-05T11:18:25.751Z,3.40
2023-03-05T11:21:13.457Z,4.10
2023-03-05T11:24:05.584Z,4.20
2023-03-05T11:26:47.655Z,4.50
2023-03-05T11:29:26.139Z,5.10
2023-03-05T11:32:17.971Z,5.40
2023-03-05T11:34:54.263Z,5.00
2023-03-05T11:37:31.506Z,6.10
2023-03-05T11:40:24.962Z,5.90
2023-03-05T11:43:03.233Z,7.40
2023-03-05T11:45:40.646Z,7.00
2023-03-05T11:48:22.085Z,7.80
2023-03-05T11:51:01.432Z,7.40
2023-03-05T11:53:37.975Z,7.70
2023-03-05T11:56:27.643Z,7.50
2023-03-05T11:59:07.078Z,7.40
2023-03-05T12:01:48.437Z,6.10
2023-03-05T12:04:23.926Z,5.20
2023-03-05T12:07:02.153Z,5.40
2023-03-05T12:09:44.206Z,5.20
2023-03-05T12:12:36.591Z,4.00
2023-03-05T12:15:37.242Z,4.10
2023-03-05T12:18:28.502Z,4.20
2023-03-05T12:21:08.707Z,5.20
2023-03-05T12:24:01.952Z,4.40
2023-03-05T12:27:09.706Z,5.50
2023-03-05T12:29:46.116Z,5.50
2023-03-05T12:32:59.742Z,6.50
2023-03-05T12:35:39.609Z,5.50
2023-03-05T12:38:33.022Z,5.10
2023-03-05T12:41:37.953Z,4.80
2023-03-05T12:44:28.792Z,4.80
2023-03-05T12:47:23.973Z,4.60
2023-03-05T12:50:04.609Z,5.10
2023-03-05T12:52:47.162Z,5.00
2023-03-05T12:55:24.765Z,6.20
2023-03-05T12:58:05.282Z,5.10
2023-03-05T13:00:46.428Z,5.30
2023-03-05T13:03:26.038Z,4.70
2023-03-05T13:06:05.678Z,4.70
2023-03-05T13:08:45.048Z,4.20
2023-03-05T13:11:25.821Z,4.30
2023-03-05T13:14:04.991Z,3.80
2023-03-05T13:16:44.958Z,3.60
2023-03-05T13:19:23.027Z,4.20
2023-03-05T13:22:06.830Z,3.50
2023-03-05T13:24:44.062Z,3.40
2023-03-05T13:27:34.896Z,3.60
2023-03-05T13:30:25.794Z,3.60
2023-03-05T13:33:06.082Z,4.10
2023-03-05T13:35:52.305Z,3.60
2023-03-05T13:38:34.698Z,3.30
2023-03-05T13:41:25.992Z,3.40
2023-03-05T13:44:04.789Z,3.20
2023-03-05T13:46:43.016Z,3.10
2023-03-05T13:49:31.580Z,3.40
2023-03-05T13:52:12.209Z,3.90
2023-03-05T13:54:48.715Z,3.60
2023-03-05T13:57:46.833Z,3.60
2023-03-05T14:00:36.498Z,3.50
2023-03-05T14:03:27.061Z,3.60
2023-03-05T14:06:13.050Z,3.70
2023-03-05T14:08:59.368Z,3.60
2023-03-05T14:11:36.938Z,4.10
2023-03-05T14:14:21.821Z,5.00
2023-03-05T14:16:58.907Z,4.10
2023-03-05T14:19:41.550Z,5.10
2023-03-05T14:22:34.679Z,4.60
2023-03-05T14:25:25.659Z,4.60
2023-03-05T14:28:03.593Z,4.20
2023-03-05T14:30:48.423Z,4.80
2023-03-05T14:33:37.813Z,4.20
2023-03-05T14:36:23.849Z,4.30
2023-03-05T14:39:00.936Z,4.50
2023-03-05T14:41:45.744Z,5.00
2023-03-05T14:44:27.503Z,4.70
2023-03-05T14:47:04.117Z,5.00
2023-03-05T14:49:46.730Z,4.70
2023-03-05T14:52:27.748Z,5.10
2023-03-05T14:55:08.523Z,5.10
2023-03-05T14:57:44.785Z,5.70
2023-03-05T15:00:25.926Z,5.50
2023-03-05T15:03:06.744Z,5.60
2023-03-05T15:05:43.896Z,4.30
2023-03-05T15:08:23.776Z,4.90
2023-03-05T15:11:11.293Z,5.30
2023-03-05T15:13:47.309Z,5.50
2023-03-05T15:16:23.900Z,5.20
2023-03-05T15:19:07.500Z,5.30
2023-03-05T15:21:44.078Z,5.20
2023-03-05T15:24:20.336Z,5.80
2023-03-05T15:26:59.420Z,6.60
2023-03-05T15:29:35.761Z,5.80
2023-03-05T15:32:17.323Z,5.90
2023-03-05T15:34:52.902Z,5.60
2023-03-05T15:37:31.877Z,5.40
2023-03-05T15:40:12.366Z,5.70
2023-03-05T15:42:48.753Z,6.00
2023-03-05T15:45:26.168Z,6.30
2023-03-05T15:48:05.148Z,5.80
2023-03-05T15:50:43.271Z,5.50
2023-03-05T15:55:59.603Z,5.60
2023-03-05T16:01:14.485Z,6.40
2023-03-05T16:03:50.994Z,7.10
2023-03-05T16:06:30.988Z,7.30
2023-03-05T16:09:10.409Z,6.60
2023-03-05T16:11:50.040Z,6.50
2023-03-05T16:14:34.743Z,7.10
2023-03-05T16:17:19.949Z,7.60
2023-03-05T16:19:59.589Z,7.70
2023-03-05T16:22:38.404Z,8.00
2023-03-05T16:25:17.226Z,8.40
2023-03-05T16:27:58.347Z,7.80
2023-03-05T16:30:36.430Z,8.70
2023-03-05T16:33:17.791Z,9.30
2023-03-05T16:36:15.304Z,9.00
2023-03-05T16:38:53.035Z,8.00
2023-03-05T16:41:31.961Z,9.20
2023-03-05T16:44:10.434Z,8.80
2023-03-05T16:49:28.695Z,7.50
2023-03-05T16:52:17.708Z,9.60
2023-03-05T16:55:00.829Z,9.00
2023-03-05T16:57:41.152Z,9.20
2023-03-05T17:00:26.101Z,8.70
2023-03-05T17:03:03.509Z,8.50
2023-03-05T17:05:45.266Z,8.40
2023-03-05T17:08:21.781Z,8.60
2023-03-05T17:11:00.267Z,10.60
2023-03-05T17:13:37.622Z,8.90
2023-03-05T17:16:18.622Z,9.60
2023-03-05T17:19:09.832Z,9.30
2023-03-05T17:21:52.095Z,9.80
2023-03-05T17:24:31.407Z,10.30
2023-03-05T17:27:08.397Z,10.50
2023-03-05T17:29:47.677Z,10.70
2023-03-05T17:35:07.792Z,11.00
2023-03-05T17:37:44.926Z,10.90
2023-03-05T17:40:24.280Z,11.20
2023-03-05T17:43:05.999Z,11.10
2023-03-05T17:45:57.619Z,12.30
2023-03-05T17:48:40.407Z,12.20
2023-03-05T17:51:22.755Z,11.40
2023-03-05T17:54:00.143Z,12.60
2023-03-05T17:56:48.433Z,12.10
2023-03-05T17:59:29.123Z,11.90
2023-03-05T18:02:11.639Z,13.10
2023-03-05T18:04:53.673Z,13.70
2023-03-05T18:07:34.610Z,13.80
2023-03-05T18:10:14.651Z,13.20
2023-03-05T18:12:55.847Z,12.70
2023-03-05T18:15:34.048Z,13.50
2023-03-05T18:18:16.151Z,13.10
2023-03-05T18:20:55.772Z,11.30
2023-03-05T18:23:32.796Z,13.40
2023-03-05T18:26:19.214Z,15.30
2023-03-05T18:28:56.826Z,12.70
2023-03-05T18:31:34.246Z,11.30
2023-03-05T18:34:20.322Z,12.90
2023-03-05T18:36:56.664Z,13.70
2023-03-05T18:39:36.734Z,12.80
2023-03-05T18:42:19.783Z,12.80
2023-03-05T18:45:00.336Z,11.80
2023-03-05T18:47:37.482Z,12.50
2023-03-05T18:50:19.764Z,11.00
2023-03-05T18:52:59.848Z,11.80
2023-03-05T18:55:37.850Z,12.60
2023-03-05T18:58:16.252Z,12.50
2023-03-05T19:00:53.880Z,14.00
2023-03-05T19:03:31.741Z,14.40
2023-03-05T19:08:58.991Z,13.60
2023-03-05T19:11:40.331Z,12.60
2023-03-05T19:17:00.672Z,13.70
2023-03-05T19:19:39.305Z,13.70
2023-03-05T19:22:22.568Z,13.60
2023-03-05T19:25:02.959Z,15.20
2023-03-05T19:27:41.365Z,14.70
2023-03-05T19:30:23.929Z,13.70
2023-03-05T19:33:05.717Z,15.20
2023-03-05T19:35:44.244Z,14.30
2023-03-05T19:38:22.324Z,14.10
2023-03-05T19:40:59.758Z,13.90
2023-03-05T19:43:38.956Z,14.90
2023-03-05T19:46:21.154Z,14.90
2023-03-05T19:48:59.654Z,13.40
2023-03-05T19:51:38.815Z,14.20
2023-03-05T19:54:22.016Z,14.10
2023-03-05T19:57:00.391Z,16.50
2023-03-05T19:59:38.307Z,16.40
2023-03-05T20:02:20.698Z,13.20
2023-03-05T20:05:09.409Z,14.40
2023-03-05T20:07:48.666Z,15.50
2023-03-05T20:10:27.499Z,15.80
2023-03-05T20:13:11.146Z,13.50
2023-03-05T20:15:51.326Z,14.40
2023-03-05T20:18:30.614Z,15.10
2023-03-05T20:21:10.630Z,14.40
2023-03-05T20:23:49.377Z,14.70
2023-03-05T20:26:39.910Z,16.20
2023-03-05T20:29:18.388Z,13.90
2023-03-05T20:31:58.033Z,14.40
2023-03-05T20:34:36.436Z,14.30
2023-03-05T20:37:15.000Z,12.50
2023-03-05T20:39:54.946Z,12.40
2023-03-05T20:42:32.334Z,13.20
2023-03-05T20:45:10.151Z,12.80
2023-03-05T20:47:49.829Z,12.30
2023-03-05T20:50:27.420Z,14.00
2023-03-05T20:53:06.155Z,12.60
2023-03-05T20:55:42.399Z,12.90
2023-03-05T20:58:18.710Z,12.90
2023-03-05T21:00:55.787Z,13.00
2023-03-05T21:03:35.486Z,12.90
2023-03-05T21:06:13.968Z,13.10
2023-03-05T21:11:30.801Z,13.10
2023-03-05T21:17:00.787Z,13.60
2023-03-05T21:19:39.467Z,15.40
2023-03-05T21:22:14.712Z,13.10
2023-03-05T21:25:03.666Z,13.90
2023-03-05T21:27:41.394Z,14.00
2023-03-05T21:30:18.351Z,13.50
2023-03-05T21:32:53.168Z,13.50
2023-03-05T21:35:30.854Z,13.60
2023-03-05T21:38:11.232Z,13.70
2023-03-05T21:40:50.358Z,14.20
2023-03-05T21:43:25.902Z,14.30
2023-03-05T21:46:05.059Z,14.80
2023-03-05T21:48:40.288Z,12.50
2023-03-05T21:51:14.524Z,13.00
2023-03-05T21:53:49.193Z,13.60
2023-03-05T21:56:26.068Z,14.90
2023-03-05T21:59:01.015Z,15.90
2023-03-05T22:01:34.720Z,15.50
2023-03-05T22:04:08.782Z,14.40
2023-03-05T22:06:42.428Z,14.90
2023-03-05T22:09:15.957Z,16.00
2023-03-05T22:11:49.545Z,15.60
2023-03-05T22:14:23.113Z,15.80
2023-03-05T22:17:02.149Z,17.00
2023-03-05T22:19:36.408Z,17.10
2023-03-05T22:22:10.155Z,16.40
2023-03-05T22:24:44.095Z,17.30
2023-03-05T22:27:17.624Z,16.10
2023-03-05T22:29:51.404Z,18.10
2023-03-05T22:32:25.539Z,18.60
2023-03-05T22:35:00.432Z,18.00
2023-03-05T22:37:34.978Z,17.30
2023-03-05T22:40:11.529Z,18.40
2023-03-05T22:42:45.862Z,17.90
2023-03-05T22:45:21.143Z,16.70
2023-03-05T22:47:54.940Z,18.40
2023-03-05T22:50:29.014Z,16.70
2023-03-05T22:53:03.985Z,17.70
2023-03-05T22:55:39.426Z,17.90
2023-03-05T22:58:13.776Z,18.30
2023-03-05T23:00:49.059Z,17.60
2023-03-05T23:03:22.703Z,16.60
2023-03-05T23:05:56.674Z,18.00
2023-03-05T23:08:30.321Z,16.80
2023-03-05T23:11:09.300Z,17.00
2023-03-05T23:13:43.780Z,16.70
2023-03-05T23:16:17.742Z,17.30
2023-03-05T23:18:51.684Z,18.40
2023-03-05T23:21:25.497Z,18.00
2023-03-05T23:23:59.175Z,16.80
2023-03-05T23:26:32.716Z,18.30
2023-03-05T23:29:07.129Z,18.30
2023-03-05T23:31:40.847Z,17.20
2023-03-05T23:34:14.778Z,17.60
2023-03-05T23:36:48.722Z,18.30
2023-03-05T23:39:22.630Z,18.40
2023-03-05T23:41:56.360Z,17.00
2023-03-05T23:44:29.800Z,18.60
2023-03-05T23:47:03.814Z,17.60
2023-03-05T23:49:37.440Z,16.80
2023-03-05T23:52:11.181Z,18.90
2023-03-05T23:54:44.728Z,17.40
2023-03-05T23:57:18.489Z,17.20
2023-03-05T23:59:52.116Z,17.70
